Time;durP1;ratioP1;P1;durP2;ratioP2;P2;SDS_P1;SDS_P2;PMS_P1;PMS_P2;Temp;Humidity;BMP_temperature;BMP_pressure;BME280_temperature;BME280_humidity;BME280_pressure;Samples;Min_cycle;Max_cycle;Signal;HPM_P1;HPM_P2
2023/03/23 00:01:01;;;;;;;7.75;2.83;;;13.20;99.90;;;;;;4968735;28;20022;-79
2023/03/23 00:03:28;;;;;;;4.72;2.35;;;13.20;99.90;;;;;;5133409;22;20068;-78
2023/03/23 00:05:59;;;;;;;4.35;2.28;;;13.20;99.90;;;;;;5006224;28;21379;-80
2023/03/23 00:08:26;;;;;;;4.72;2.75;;;13.20;99.90;;;;;;5003082;28;20473;-79
2023/03/23 00:10:56;;;;;;;7.97;2.90;;;13.30;99.90;;;;;;5000188;28;20055;-78
2023/03/23 00:13:25;;;;;;;5.47;2.85;;;13.40;99.90;;;;;;4982672;28;20113;-79
2023/03/23 00:15:51;;;;;;;3.40;2.10;;;13.30;99.90;;;;;;4983568;28;20433;-82
2023/03/23 00:18:21;;;;;;;9.27;2.88;;;13.30;99.90;;;;;;4992988;28;20363;-80
2023/03/23 00:20:48;;;;;;;6.30;2.63;;;13.40;99.90;;;;;;5000812;28;20052;-79
2023/03/23 00:23:20;;;;;;;6.07;2.40;;;13.40;99.90;;;;;;4982772;28;20029;-81
2023/03/23 00:25:57;;;;;;;4.72;2.42;;;13.40;99.90;;;;;;4983836;28;21070;-79
2023/03/23 00:28:26;;;;;;;4.72;2.25;;;13.40;99.90;;;;;;4981031;28;20091;-80
2023/03/23 00:30:59;;;;;;;4.40;2.13;;;13.40;99.90;;;;;;4991052;28;20037;-81
2023/03/23 00:33:28;;;;;;;6.07;2.15;;;13.50;99.90;;;;;;4985883;28;20513;-79
2023/03/23 00:35:55;;;;;;;2.38;2.00;;;13.50;99.90;;;;;;4982935;28;20029;-79
2023/03/23 00:38:22;;;;;;;3.97;2.42;;;13.50;99.90;;;;;;4986660;28;20462;-81
2023/03/23 00:40:48;;;;;;;4.32;2.63;;;13.60;99.90;;;;;;4994211;28;20021;-84
2023/03/23 00:43:18;;;;;;;5.03;2.40;;;13.60;99.90;;;;;;4992371;28;20532;-84
2023/03/23 00:45:52;;;;;;;5.25;2.60;;;13.70;99.90;;;;;;5004888;28;20034;-81
2023/03/23 00:48:21;;;;;;;7.45;2.25;;;13.60;99.90;;;;;;4984780;28;20439;-86
2023/03/23 00:50:47;;;;;;;3.55;2.40;;;13.60;99.90;;;;;;4983800;28;20026;-88
2023/03/23 00:53:14;;;;;;;2.65;1.98;;;13.60;99.90;;;;;;5002496;28;21075;-82
2023/03/23 00:55:43;;;;;;;7.65;2.42;;;13.60;99.90;;;;;;4984081;28;20438;-86
2023/03/23 00:58:12;;;;;;;7.05;2.00;;;13.70;99.90;;;;;;5000934;28;20080;-84
2023/03/23 01:00:38;;;;;;;4.15;2.33;;;13.70;99.90;;;;;;4985456;28;20084;-79
2023/03/23 01:03:05;;;;;;;2.40;2.20;;;13.80;99.90;;;;;;4988330;28;20041;-80
2023/03/23 01:05:37;;;;;;;2.53;1.83;;;13.80;99.90;;;;;;5004075;28;20105;-80
2023/03/23 01:08:06;;;;;;;;;;;13.80;99.90;;;;;;5007976;28;20115;-80
2023/03/23 01:10:38;;;;;;;3.75;1.88;;;13.80;99.90;;;;;;5005300;28;20093;-87
2023/03/23 01:13:05;;;;;;;8.90;2.38;;;13.80;99.90;;;;;;4998177;28;20029;-86
2023/03/23 01:15:30;;;;;;;4.40;2.20;;;13.80;99.90;;;;;;4990153;28;20036;-86
2023/03/23 01:17:56;;;;;;;8.50;2.90;;;13.70;99.90;;;;;;4997746;28;20030;-85
2023/03/23 01:20:23;;;;;;;4.10;2.40;;;13.80;99.90;;;;;;4990061;28;20041;-85
2023/03/23 01:22:49;;;;;;;4.47;2.55;;;13.80;99.90;;;;;;4988142;28;20061;-88
2023/03/23 01:25:14;;;;;;;4.75;2.40;;;13.70;99.90;;;;;;4990355;28;20054;-86
2023/03/23 01:27:43;;;;;;;5.25;2.40;;;13.80;99.90;;;;;;5008526;28;20456;-86
2023/03/23 01:30:12;;;;;;;3.60;2.35;;;13.70;99.90;;;;;;5006030;28;20045;-83
2023/03/23 01:32:38;;;;;;;6.75;2.53;;;13.80;99.90;;;;;;5009795;28;20463;-87
2023/03/23 01:35:07;;;;;;;2.17;1.98;;;13.70;99.90;;;;;;5009093;28;20040;-89
2023/03/23 01:37:36;;;;;;;5.43;2.60;;;13.70;99.90;;;;;;5009081;28;20472;-89
2023/03/23 01:40:01;;;;;;;3.25;2.38;;;13.70;99.90;;;;;;4990632;28;20044;-88
2023/03/23 01:42:35;;;;;;;3.50;2.75;;;13.70;99.90;;;;;;4983079;28;20026;-80
2023/03/23 01:45:19;;;;;;;3.40;2.60;;;13.80;99.90;;;;;;4997277;28;20030;-88
2023/03/23 01:47:55;;;;;;;4.30;2.80;;;13.80;99.90;;;;;;4998772;28;20381;-79
2023/03/23 01:50:23;;;;;;;8.32;2.70;;;13.80;99.90;;;;;;5004515;28;20030;-80
2023/03/23 01:52:52;;;;;;;5.85;2.40;;;13.80;99.90;;;;;;5002027;28;20018;-78
2023/03/23 01:55:21;;;;;;;4.78;2.80;;;13.80;99.90;;;;;;5002887;28;20018;-86
2023/03/23 01:57:48;;;;;;;5.18;2.10;;;13.80;99.90;;;;;;4988813;28;20121;-80
2023/03/23 02:00:15;;;;;;;5.43;2.80;;;13.90;99.90;;;;;;4984943;28;20018;-79
2023/03/23 02:02:47;;;;;;;3.58;2.42;;;13.80;99.90;;;;;;5003545;28;20522;-83
2023/03/23 02:05:31;;;;;;;5.75;2.40;;;13.90;99.90;;;;;;4986397;28;20033;-79
2023/03/23 02:08:02;;;;;;;7.72;2.83;;;13.90;99.90;;;;;;5004998;28;20030;-79
2023/03/23 02:10:30;;;;;;;2.78;2.47;;;13.70;99.90;;;;;;5004275;28;20030;-84
2023/03/23 02:13:00;;;;;;;9.20;2.22;;;13.80;99.90;;;;;;4991553;28;20053;-87
2023/03/23 02:15:33;;;;;;;4.20;2.80;;;13.80;99.90;;;;;;4995360;28;20139;-86
2023/03/23 02:18:23;;;;;;;5.05;2.58;;;13.70;99.90;;;;;;5004197;28;20045;-84
2023/03/23 02:21:02;;;;;;;3.17;2.28;;;13.80;99.90;;;;;;5007937;28;20319;-87
2023/03/23 02:24:01;;;;;;;4.95;2.42;;;13.70;99.90;;;;;;4989587;28;20017;-88
2023/03/23 02:26:39;;;;;;;4.82;2.60;;;13.70;99.90;;;;;;4996295;28;20040;-88
2023/03/23 02:29:13;;;;;;;3.85;2.88;;;13.70;99.90;;;;;;4990728;28;20034;-87
2023/03/23 02:31:44;;;;;;;5.13;2.75;;;13.60;99.90;;;;;;4996439;28;20025;-83
2023/03/23 02:34:14;;;;;;;6.50;3.03;;;13.70;99.90;;;;;;5004148;28;20104;-85
2023/03/23 02:37:02;;;;;;;3.95;2.28;;;13.70;99.90;;;;;;5005032;28;20496;-88
2023/03/23 02:39:45;;;;;;;2.85;2.55;;;13.70;99.90;;;;;;5005307;28;20048;-87
2023/03/23 02:42:15;;;;;;;6.40;2.73;;;13.70;99.90;;;;;;5004158;28;20028;-88
2023/03/23 02:44:47;;;;;;;4.45;2.95;;;13.60;99.90;;;;;;5006180;28;20814;-84
2023/03/23 02:47:20;;;;;;;2.83;2.33;;;13.70;99.90;;;;;;5006661;28;20128;-82
2023/03/23 02:49:50;;;;;;;3.28;2.47;;;13.60;99.90;;;;;;4987783;28;20088;-84
2023/03/23 02:52:21;;;;;;;3.53;3.00;;;13.60;99.90;;;;;;4987890;28;20487;-90
2023/03/23 02:54:49;;;;;;;5.75;2.75;;;13.60;99.90;;;;;;4988261;28;20025;-87
2023/03/23 02:57:16;;;;;;;4.85;2.65;;;13.60;99.90;;;;;;5005827;28;20064;-88
2023/03/23 02:59:41;;;;;;;4.40;2.88;;;13.70;99.90;;;;;;4987160;28;20076;-85
2023/03/23 03:02:22;;;;;;;3.28;2.60;;;13.70;99.90;;;;;;5003369;28;20041;-83
2023/03/23 03:04:58;;;;;;;4.57;2.70;;;13.70;99.90;;;;;;4987599;28;20392;-87
2023/03/23 03:08:06;;;;;;;4.15;2.78;;;13.60;99.90;;;;;;5004461;28;20049;-86
2023/03/23 03:10:41;;;;;;;4.80;2.72;;;13.70;99.90;;;;;;5002299;28;20045;-80
2023/03/23 03:13:20;;;;;;;2.30;2.03;;;13.60;99.90;;;;;;5001127;28;20022;-79
2023/03/23 03:16:05;;;;;;;6.22;2.70;;;13.70;99.90;;;;;;4995734;28;20036;-86
2023/03/23 03:18:38;;;;;;;5.38;2.45;;;13.60;99.90;;;;;;5001082;28;20033;-85
2023/03/23 03:21:08;;;;;;;3.53;2.33;;;13.60;99.90;;;;;;5012305;28;20430;-79
2023/03/23 03:23:37;;;;;;;2.80;2.35;;;13.70;99.90;;;;;;5010768;28;20017;-88
2023/03/23 03:26:04;;;;;;;3.80;2.70;;;13.70;99.90;;;;;;5013716;28;20018;-88
2023/03/23 03:28:32;;;;;;;6.72;2.67;;;13.70;99.90;;;;;;5004193;28;20060;-80
2023/03/23 03:31:01;;;;;;;2.58;2.38;;;13.80;99.90;;;;;;5001532;28;20081;-87
2023/03/23 03:33:30;;;;;;;4.07;2.75;;;13.80;99.90;;;;;;5006458;28;20025;-86
2023/03/23 03:35:59;;;;;;;6.35;2.17;;;13.70;99.90;;;;;;5004965;28;20066;-79
2023/03/23 03:38:27;;;;;;;3.30;2.22;;;13.80;99.90;;;;;;5001370;28;20021;-82
2023/03/23 03:40:54;;;;;;;5.13;2.75;;;13.70;99.90;;;;;;4984507;28;20013;-87
2023/03/23 03:43:19;;;;;;;7.72;2.65;;;13.80;99.90;;;;;;5004289;28;20021;-79
2023/03/23 03:45:45;;;;;;;4.68;2.15;;;13.80;99.90;;;;;;5000237;28;20022;-79
2023/03/23 03:48:11;;;;;;;2.63;2.42;;;13.70;99.90;;;;;;4983139;28;20044;-79
2023/03/23 03:50:37;;;;;;;3.25;2.50;;;13.70;99.90;;;;;;5000298;28;20697;-81
2023/03/23 03:53:02;;;;;;;4.35;2.80;;;13.80;99.90;;;;;;4984167;28;20044;-78
2023/03/23 03:55:28;;;;;;;9.18;3.00;;;13.70;99.90;;;;;;5000256;28;20457;-81
2023/03/23 03:57:55;;;;;;;3.83;2.33;;;13.70;99.90;;;;;;4983333;28;20029;-78
2023/03/23 04:00:22;;;;;;;19.75;6.10;;;13.70;99.90;;;;;;4999254;28;20030;-82
2023/03/23 04:02:53;;;;;;;5.03;2.97;;;13.80;99.90;;;;;;4982978;28;20037;-80
2023/03/23 04:05:20;;;;;;;3.40;2.78;;;13.80;99.90;;;;;;4980890;28;20030;-79
2023/03/23 04:07:49;;;;;;;2.67;2.20;;;13.80;99.90;;;;;;4993032;28;20407;-79
2023/03/23 04:10:15;;;;;;;2.15;1.95;;;13.80;99.90;;;;;;5002985;28;20218;-84
2023/03/23 04:12:40;;;;;;;4.20;2.90;;;13.90;99.90;;;;;;4985563;28;20100;-87
2023/03/23 04:15:07;;;;;;;4.95;2.58;;;13.80;99.90;;;;;;4986369;28;20103;-82
2023/03/23 04:17:35;;;;;;;4.15;2.75;;;13.80;99.90;;;;;;4986651;28;20049;-85
2023/03/23 04:20:06;;;;;;;3.55;2.60;;;13.90;99.90;;;;;;4986465;28;20036;-83
2023/03/23 04:22:36;;;;;;;3.92;2.90;;;13.80;99.90;;;;;;5000089;28;20045;-79
2023/03/23 04:25:05;;;;;;;3.78;2.80;;;13.90;99.90;;;;;;4983557;28;20030;-83
2023/03/23 04:27:34;;;;;;;3.80;2.55;;;13.80;99.90;;;;;;4982838;28;20037;-79
2023/03/23 04:29:59;;;;;;;4.25;2.63;;;13.90;99.90;;;;;;4985348;28;20057;-89
2023/03/23 04:32:28;;;;;;;6.57;2.78;;;13.80;99.90;;;;;;4987736;28;20053;-86
2023/03/23 04:35:00;;;;;;;4.80;2.40;;;13.70;99.90;;;;;;4990848;28;20576;-82
2023/03/23 04:37:28;;;;;;;3.20;2.33;;;13.80;99.90;;;;;;4987692;28;20036;-79
2023/03/23 04:40:00;;;;;;;3.22;2.35;;;13.80;99.90;;;;;;4988394;28;20384;-79
2023/03/23 04:42:32;;;;;;;4.30;2.47;;;13.80;99.90;;;;;;4996738;28;20589;-79
2023/03/23 04:44:59;;;;;;;2.22;2.03;;;13.90;99.90;;;;;;4995246;28;20057;-79
2023/03/23 04:47:29;;;;;;;5.10;2.88;;;13.90;99.90;;;;;;4986202;28;20112;-80
2023/03/23 04:49:57;;;;;;;3.97;2.40;;;13.80;99.90;;;;;;5005148;28;20021;-87
2023/03/23 04:52:24;;;;;;;8.63;2.60;;;13.80;99.90;;;;;;5004649;28;20017;-84
2023/03/23 04:54:50;;;;;;;3.10;2.53;;;13.90;99.90;;;;;;4986839;28;20025;-85
2023/03/23 04:57:16;;;;;;;3.70;2.40;;;13.90;99.90;;;;;;4990301;28;20028;-84
2023/03/23 04:59:44;;;;;;;7.50;2.50;;;13.80;99.90;;;;;;4994694;28;20022;-87
2023/03/23 05:02:12;;;;;;;3.33;2.28;;;13.80;99.90;;;;;;5011726;28;20022;-82
2023/03/23 05:04:40;;;;;;;4.95;2.00;;;13.90;99.90;;;;;;4986762;28;20029;-79
2023/03/23 05:07:06;;;;;;;3.28;2.20;;;14.00;99.90;;;;;;4985727;28;20044;-83
2023/03/23 05:09:32;;;;;;;2.35;2.05;;;14.00;99.90;;;;;;5003832;28;20048;-79
2023/03/23 05:12:02;;;;;;;6.13;2.20;;;13.90;99.90;;;;;;4989378;28;20018;-79
2023/03/23 05:14:28;;;;;;;5.00;2.53;;;14.00;99.90;;;;;;4991330;28;20024;-85
2023/03/23 05:16:53;;;;;;;5.60;2.40;;;14.00;99.90;;;;;;5006664;28;20767;-87
2023/03/23 05:19:19;;;;;;;3.92;2.05;;;13.90;99.90;;;;;;4997718;28;20083;-80
2023/03/23 05:21:45;;;;;;;2.60;2.08;;;14.00;99.90;;;;;;4989779;28;20489;-88
2023/03/23 05:24:13;;;;;;;4.05;2.38;;;13.90;99.90;;;;;;5015314;28;20140;-83
2023/03/23 05:26:39;;;;;;;2.28;2.05;;;14.00;99.90;;;;;;5007723;28;20029;-87
2023/03/23 05:29:07;;;;;;;3.30;2.35;;;13.90;99.90;;;;;;5005348;28;20033;-84
2023/03/23 05:31:32;;;;;;;5.53;2.58;;;13.90;99.90;;;;;;5004111;28;20191;-83
2023/03/23 05:33:58;;;;;;;6.43;2.80;;;14.00;99.90;;;;;;4997161;28;20458;-83
2023/03/23 05:36:24;;;;;;;5.88;1.90;;;14.00;99.90;;;;;;5009571;28;20041;-83
2023/03/23 05:38:52;;;;;;;5.75;2.45;;;14.00;99.90;;;;;;5004999;28;20030;-83
2023/03/23 05:41:18;;;;;;;3.80;2.20;;;13.90;99.90;;;;;;5004501;28;20025;-80
2023/03/23 05:43:44;;;;;;;3.63;2.33;;;14.00;99.90;;;;;;5005845;28;20095;-82
2023/03/23 05:46:14;;;;;;;8.75;2.85;;;14.00;99.90;;;;;;4989112;28;20029;-80
2023/03/23 05:48:40;;;;;;;3.72;1.92;;;14.00;99.90;;;;;;5002614;28;20038;-79
2023/03/23 05:51:08;;;;;;;3.65;2.40;;;14.00;99.90;;;;;;4984709;28;20067;-82
2023/03/23 05:53:35;;;;;;;4.70;2.00;;;14.00;99.90;;;;;;5006925;28;20025;-82
2023/03/23 05:56:03;;;;;;;4.82;1.98;;;14.00;99.90;;;;;;4989286;28;20114;-79
2023/03/23 05:58:29;;;;;;;3.50;2.30;;;13.90;99.90;;;;;;5003318;28;20450;-82
2023/03/23 06:00:57;;;;;;;4.75;2.40;;;14.00;99.90;;;;;;4986805;28;20098;-81
2023/03/23 06:03:22;;;;;;;4.03;2.35;;;14.00;99.90;;;;;;5002016;28;20026;-80
2023/03/23 06:05:48;;;;;;;4.32;2.13;;;13.90;99.90;;;;;;4984564;28;20037;-80
2023/03/23 06:08:14;;;;;;;3.63;2.05;;;14.00;99.90;;;;;;5009800;28;20504;-79
2023/03/23 06:10:39;;;;;;;2.92;2.05;;;14.00;99.90;;;;;;5008803;28;20018;-83
2023/03/23 06:13:05;;;;;;;4.75;2.25;;;14.00;99.90;;;;;;4992121;28;20030;-79
2023/03/23 06:15:32;;;;;;;4.40;2.10;;;14.00;99.90;;;;;;4986953;28;20039;-79
2023/03/23 06:17:59;;;;;;;3.92;2.10;;;13.90;99.90;;;;;;4985387;28;20025;-82
2023/03/23 06:20:25;;;;;;;5.40;1.90;;;13.90;99.90;;;;;;4985200;28;20024;-84
2023/03/23 06:22:51;;;;;;;7.47;2.80;;;14.00;99.90;;;;;;4988042;28;20018;-85
2023/03/23 06:25:17;;;;;;;6.22;2.22;;;14.00;99.90;;;;;;5005468;28;20053;-87
2023/03/23 06:27:43;;;;;;;3.00;1.80;;;14.00;99.90;;;;;;4994826;28;20033;-83
2023/03/23 06:30:10;;;;;;;3.40;2.30;;;14.00;99.90;;;;;;5003445;28;20022;-79
2023/03/23 06:32:37;;;;;;;3.58;2.10;;;14.00;99.90;;;;;;4993851;28;20574;-81
2023/03/23 06:35:03;;;;;;;4.35;2.30;;;13.90;99.90;;;;;;4986035;28;20032;-80
2023/03/23 06:37:29;;;;;;;4.25;1.73;;;13.90;99.90;;;;;;4993916;28;20562;-82
2023/03/23 06:39:55;;;;;;;7.07;2.25;;;14.00;99.90;;;;;;5002877;28;20029;-82
2023/03/23 06:42:24;;;;;;;6.38;1.92;;;14.00;99.90;;;;;;4986643;28;20037;-81
2023/03/23 06:44:52;;;;;;;3.38;1.90;;;14.00;99.90;;;;;;5002480;28;20026;-84
2023/03/23 06:47:18;;;;;;;11.95;2.20;;;14.00;99.90;;;;;;4991216;28;20045;-87
2023/03/23 06:49:43;;;;;;;4.25;1.92;;;14.00;99.90;;;;;;5008000;28;20107;-83
2023/03/23 06:52:09;;;;;;;5.15;2.42;;;14.00;99.90;;;;;;4995300;28;20032;-88
2023/03/23 06:54:35;;;;;;;4.25;2.10;;;13.90;99.90;;;;;;5002074;28;20022;-87
2023/03/23 06:57:01;;;;;;;4.50;1.90;;;14.00;99.90;;;;;;5002617;28;20029;-86
2023/03/23 06:59:26;;;;;;;6.10;1.80;;;14.00;99.90;;;;;;4984040;28;20486;-83
2023/03/23 07:01:52;;;;;;;5.60;1.77;;;14.00;99.90;;;;;;4984770;28;20030;-80
2023/03/23 07:04:18;;;;;;;6.25;1.73;;;14.10;99.90;;;;;;5000177;28;20033;-82
2023/03/23 07:06:44;;;;;;;7.07;2.22;;;14.10;99.90;;;;;;4993199;28;20038;-80
2023/03/23 07:09:09;;;;;;;5.10;1.73;;;14.10;99.90;;;;;;4982850;28;20092;-81
2023/03/23 07:11:35;;;;;;;4.47;1.40;;;14.10;99.90;;;;;;5000272;28;20142;-78
2023/03/23 07:14:08;;;;;;;9.50;1.70;;;14.20;99.90;;;;;;5000497;28;20421;-85
2023/03/23 07:16:34;;;;;;;9.18;2.20;;;14.20;99.90;;;;;;4999626;28;20041;-81
2023/03/23 07:19:02;;;;;;;8.27;1.58;;;14.30;99.90;;;;;;4983869;28;20065;-81
2023/03/23 07:21:28;;;;;;;5.13;1.70;;;14.30;99.90;;;;;;4999546;28;20591;-82
2023/03/23 07:23:53;;;;;;;1.60;1.27;;;14.30;99.90;;;;;;4986946;28;20026;-80
2023/03/23 07:26:19;;;;;;;7.20;1.60;;;14.30;99.90;;;;;;5000008;28;20203;-79
2023/03/23 07:28:46;;;;;;;4.78;1.92;;;14.30;99.90;;;;;;4982948;28;20026;-81
2023/03/23 07:31:12;;;;;;;9.88;1.83;;;14.30;99.90;;;;;;4986424;28;20037;-81
2023/03/23 07:33:38;;;;;;;9.65;2.00;;;14.30;99.90;;;;;;5003090;28;20021;-87
2023/03/23 07:36:05;;;;;;;5.13;1.50;;;14.30;99.90;;;;;;4983080;28;20214;-80
2023/03/23 07:38:31;;;;;;;6.05;1.25;;;14.30;99.90;;;;;;5000948;28;20033;-80
2023/03/23 07:40:57;;;;;;;6.10;2.45;;;14.40;99.90;;;;;;4984444;28;20037;-80
2023/03/23 07:43:26;;;;;;;4.93;1.65;;;14.40;99.90;;;;;;5005758;28;20022;-79
2023/03/23 07:45:51;;;;;;;5.82;1.63;;;14.40;99.90;;;;;;5002914;28;20018;-82
2023/03/23 07:48:17;;;;;;;9.68;1.55;;;14.40;99.90;;;;;;5002695;28;20429;-84
2023/03/23 07:50:43;;;;;;;9.02;1.63;;;14.40;99.90;;;;;;4981082;28;20030;-83
2023/03/23 07:53:11;;;;;;;4.85;1.30;;;14.40;99.90;;;;;;5001737;28;20112;-84
2023/03/23 07:55:37;;;;;;;5.95;1.48;;;14.40;99.90;;;;;;4999042;28;20029;-81
2023/03/23 07:58:03;;;;;;;5.90;1.35;;;14.40;99.90;;;;;;5001555;28;20779;-79
2023/03/23 08:00:29;;;;;;;11.23;1.40;;;14.40;99.90;;;;;;5001419;28;20037;-78
2023/03/23 08:03:02;;;;;;;5.40;1.20;;;14.40;99.90;;;;;;4982417;28;20041;-81
2023/03/23 08:05:28;;;;;;;3.45;1.58;;;14.30;99.90;;;;;;4985707;28;20565;-83
2023/03/23 08:07:54;;;;;;;3.83;1.30;;;14.20;99.90;;;;;;4981070;28;20061;-78
2023/03/23 08:10:26;;;;;;;7.20;1.45;;;14.10;99.90;;;;;;4999742;28;20030;-79
2023/03/23 08:12:54;;;;;;;4.45;1.50;;;14.10;99.90;;;;;;4992589;28;20124;-79
2023/03/23 08:15:21;;;;;;;6.72;1.92;;;14.00;99.90;;;;;;4982178;28;20025;-81
2023/03/23 08:17:48;;;;;;;3.38;1.70;;;13.90;99.90;;;;;;4992129;28;20026;-80
2023/03/23 08:20:18;;;;;;;6.38;1.70;;;13.80;99.90;;;;;;4988583;28;20021;-81
2023/03/23 08:22:56;;;;;;;5.93;1.65;;;13.80;99.90;;;;;;5005267;28;20061;-80
2023/03/23 08:25:24;;;;;;;11.00;1.60;;;13.70;99.90;;;;;;4982817;28;20065;-80
2023/03/23 08:27:53;;;;;;;3.97;1.83;;;13.70;99.90;;;;;;4979524;28;20243;-79
2023/03/23 08:30:22;;;;;;;6.32;1.40;;;13.60;99.90;;;;;;4975459;28;20118;-79
2023/03/23 08:32:49;;;;;;;6.10;1.85;;;13.60;99.90;;;;;;4980654;28;20128;-79
2023/03/23 08:35:15;;;;;;;4.10;1.65;;;13.50;99.90;;;;;;5000094;28;20052;-80
2023/03/23 08:37:41;;;;;;;6.53;1.40;;;13.30;99.90;;;;;;4976936;28;20022;-78
2023/03/23 08:40:09;;;;;;;2.97;1.10;;;12.90;99.90;;;;;;4978165;28;20037;-78
2023/03/23 08:42:40;;;;;;;4.07;0.90;;;12.70;99.90;;;;;;4997467;28;20034;-79
2023/03/23 08:45:08;;;;;;;3.50;0.63;;;12.50;99.90;;;;;;4981231;28;20026;-78
2023/03/23 08:47:35;;;;;;;3.38;0.90;;;12.10;99.90;;;;;;4999019;28;20038;-78
2023/03/23 08:50:02;;;;;;;3.42;1.30;;;11.60;99.90;;;;;;5002953;28;21086;-80
2023/03/23 08:52:29;;;;;;;2.72;0.90;;;11.30;99.90;;;;;;4982245;28;20087;-79
2023/03/23 08:54:58;;;;;;;3.63;1.00;;;11.00;99.90;;;;;;5003073;28;20096;-80
2023/03/23 08:57:25;;;;;;;0.50;0.50;;;10.80;99.90;;;;;;4985154;28;20445;-78
2023/03/23 08:59:54;;;;;;;1.52;0.52;;;10.70;99.90;;;;;;5016855;28;20071;-85
2023/03/23 09:02:20;;;;;;;1.30;0.60;;;10.40;99.90;;;;;;5016001;28;20022;-80
2023/03/23 09:04:46;;;;;;;3.72;0.55;;;10.40;99.90;;;;;;5012817;28;20049;-80
2023/03/23 09:07:14;;;;;;;0.80;0.50;;;10.30;99.90;;;;;;5011034;28;20029;-79
2023/03/23 09:09:40;;;;;;;1.98;0.60;;;10.30;99.90;;;;;;5002859;28;20045;-85
2023/03/23 09:12:08;;;;;;;0.93;0.50;;;10.40;99.90;;;;;;5006590;28;20520;-86
2023/03/23 09:14:34;;;;;;;0.90;0.50;;;10.50;99.90;;;;;;5002810;28;20022;-81
2023/03/23 09:17:01;;;;;;;1.77;0.82;;;10.60;99.90;;;;;;5001682;28;20542;-79
2023/03/23 09:19:27;;;;;;;3.17;0.73;;;10.50;99.90;;;;;;5000515;28;20064;-80
2023/03/23 09:21:53;;;;;;;1.45;0.43;;;10.60;99.90;;;;;;5002197;28;20537;-80
2023/03/23 09:24:18;;;;;;;1.52;0.70;;;10.60;99.90;;;;;;5013796;28;20040;-82
2023/03/23 09:26:45;;;;;;;3.65;0.63;;;10.50;99.90;;;;;;5006594;28;20026;-80
2023/03/23 09:29:12;;;;;;;4.38;1.00;;;10.50;99.90;;;;;;5017521;28;20017;-80
2023/03/23 09:31:39;;;;;;;5.88;1.05;;;10.50;99.90;;;;;;4997942;28;20038;-80
2023/03/23 09:34:06;;;;;;;2.80;0.88;;;10.60;99.90;;;;;;4998543;28;20553;-81
2023/03/23 09:36:32;;;;;;;1.75;0.60;;;10.70;99.90;;;;;;5019017;28;20026;-82
2023/03/23 09:38:59;;;;;;;2.53;0.80;;;10.80;99.90;;;;;;5014525;28;20034;-79
2023/03/23 09:41:44;;;;;;;1.23;0.60;;;10.90;99.90;;;;;;5002857;28;20036;-79
2023/03/23 09:44:31;;;;;;;0.82;0.40;;;11.00;99.90;;;;;;5015903;28;20080;-81
2023/03/23 09:47:33;;;;;;;2.70;0.63;;;11.00;99.90;;;;;;4996350;28;20032;-82
2023/03/23 09:50:11;;;;;;;3.42;0.90;;;11.00;99.90;;;;;;5014521;28;20556;-81
2023/03/23 09:52:54;;;;;;;4.75;0.60;;;11.00;99.90;;;;;;5004009;28;20123;-81
2023/03/23 09:55:21;;;;;;;2.88;0.50;;;11.20;99.90;;;;;;5000237;28;20560;-82
2023/03/23 09:58:09;;;;;;;2.88;0.98;;;11.30;99.90;;;;;;5016966;28;20432;-82
2023/03/23 10:00:54;;;;;;;5.25;0.88;;;11.40;99.90;;;;;;5013248;28;20046;-80
2023/03/23 10:03:26;;;;;;;4.10;0.70;;;11.60;99.90;;;;;;5016785;28;20052;-83
2023/03/23 10:05:55;;;;;;;2.07;0.97;;;11.50;99.90;;;;;;5015347;28;20085;-81
2023/03/23 10:08:32;;;;;;;4.03;0.63;;;11.60;99.90;;;;;;5005527;28;20124;-83
2023/03/23 10:11:07;;;;;;;3.85;0.60;;;11.60;99.90;;;;;;5004619;28;20025;-80
2023/03/23 10:13:32;;;;;;;5.25;0.70;;;11.60;99.90;;;;;;5010777;28;20029;-79
2023/03/23 10:16:00;;;;;;;4.32;0.90;;;11.50;99.90;;;;;;5004354;28;20052;-80
2023/03/23 10:18:40;;;;;;;4.13;0.85;;;11.60;99.90;;;;;;5014020;28;20022;-82
2023/03/23 10:21:13;;;;;;;4.30;0.80;;;11.50;99.90;;;;;;5004740;28;20434;-83
2023/03/23 10:23:51;;;;;;;3.45;0.63;;;11.60;99.90;;;;;;5018933;28;20401;-83
2023/03/23 10:26:47;;;;;;;2.80;0.82;;;11.60;99.90;;;;;;5016389;28;20316;-81
2023/03/23 10:29:30;;;;;;;3.55;0.70;;;11.50;99.90;;;;;;5016453;28;20402;-83
2023/03/23 10:32:13;;;;;;;3.08;0.70;;;11.50;99.90;;;;;;4997888;28;20113;-84
2023/03/23 10:35:02;;;;;;;3.80;0.70;;;11.60;99.90;;;;;;5005565;28;20045;-81
2023/03/23 10:37:43;;;;;;;3.90;0.90;;;11.50;99.90;;;;;;5013783;28;20018;-82
2023/03/23 10:40:17;;;;;;;5.28;1.17;;;11.40;99.90;;;;;;5016392;28;20022;-82
2023/03/23 10:42:43;;;;;;;4.60;1.00;;;11.50;99.90;;;;;;5000288;28;20428;-80
2023/03/23 10:45:22;;;;;;;3.72;0.85;;;11.60;99.90;;;;;;4997341;28;20033;-81
2023/03/23 10:48:19;;;;;;;3.03;0.60;;;11.80;99.90;;;;;;5002281;28;20124;-83
2023/03/23 10:50:50;;;;;;;3.47;0.68;;;12.20;99.90;;;;;;4997580;28;20025;-83
2023/03/23 10:53:35;;;;;;;2.53;0.80;;;12.60;99.90;;;;;;5012418;28;20018;-83
2023/03/23 10:56:01;;;;;;;2.10;0.70;;;12.70;99.90;;;;;;4994696;28;20017;-83
2023/03/23 10:58:31;;;;;;;3.88;0.68;;;13.30;99.90;;;;;;5001430;28;20041;-90
2023/03/23 11:00:58;;;;;;;1.70;0.60;;;13.70;99.90;;;;;;5007016;28;20044;-88
2023/03/23 11:03:48;;;;;;;2.13;0.52;;;14.40;99.90;;;;;;5003657;28;20124;-89
2023/03/23 11:06:35;;;;;;;2.08;0.85;;;14.90;99.90;;;;;;5025236;28;20025;-87
2023/03/23 11:09:17;;;;;;;0.75;0.47;;;15.10;99.90;;;;;;5015310;28;20104;-87
2023/03/23 11:11:49;;;;;;;0.95;0.60;;;14.90;99.90;;;;;;5026143;28;20021;-85
2023/03/23 11:14:38;;;;;;;1.35;0.68;;;14.40;99.90;;;;;;5006541;28;20025;-85
2023/03/23 11:17:19;;;;;;;6.10;1.08;;;14.30;99.90;;;;;;5025063;28;20113;-90
2023/03/23 11:19:45;;;;;;;6.55;0.93;;;14.30;99.90;;;;;;5130668;23;20041;-87
2023/03/23 11:22:19;;;;;;;1.73;0.68;;;14.40;99.90;;;;;;5023583;28;20113;-84
2023/03/23 11:24:47;;;;;;;2.00;0.70;;;14.30;99.90;;;;;;4990427;28;20456;-83
2023/03/23 11:27:15;;;;;;;3.28;0.82;;;14.40;99.90;;;;;;4989110;28;20041;-82
2023/03/23 11:30:12;;;;;;;3.92;0.98;;;14.60;99.90;;;;;;5017155;28;20077;-82
2023/03/23 11:32:44;;;;;;;5.45;0.90;;;14.90;99.90;;;;;;5012889;28;20037;-83
2023/03/23 11:35:21;;;;;;;2.25;0.82;;;15.00;99.90;;;;;;5005210;28;20029;-80
2023/03/23 11:37:54;;;;;;;8.65;1.23;;;15.00;99.90;;;;;;5000927;28;20120;-88
2023/03/23 11:40:27;;;;;;;1.35;0.80;;;15.20;99.90;;;;;;5018676;28;20048;-89
2023/03/23 11:42:55;;;;;;;1.00;0.70;;;15.40;99.90;;;;;;5004552;28;20029;-87
2023/03/23 11:45:48;;;;;;;1.85;0.82;;;15.80;99.90;;;;;;4991154;28;20018;-87
2023/03/23 11:48:29;;;;;;;2.72;0.88;;;16.10;99.90;;;;;;5021077;28;20037;-88
2023/03/23 11:51:15;;;;;;;1.27;0.75;;;16.60;99.90;;;;;;4993078;28;20410;-87
2023/03/23 11:54:13;;;;;;;2.30;0.70;;;16.60;99.90;;;;;;5016270;28;20040;-90
2023/03/23 11:56:45;;;;;;;3.58;0.60;;;16.40;99.90;;;;;;5016133;28;20100;-87
2023/03/23 11:59:17;;;;;;;4.75;0.85;;;16.00;99.90;;;;;;4995041;28;20116;-89
2023/03/23 12:02:05;;;;;;;1.55;0.60;;;15.90;99.90;;;;;;5002045;28;20057;-86
2023/03/23 12:04:36;;;;;;;1.98;0.75;;;15.50;99.90;;;;;;5003027;28;20033;-83
2023/03/23 12:07:19;;;;;;;6.45;0.68;;;15.30;99.90;;;;;;4991955;28;20041;-89
2023/03/23 12:10:03;;;;;;;1.70;1.00;;;15.10;99.90;;;;;;5008322;28;20025;-89
2023/03/23 12:13:13;;;;;;;1.27;0.52;;;15.30;99.90;;;;;;4998368;28;20029;-87
2023/03/23 12:15:58;;;;;;;2.33;0.70;;;15.90;99.90;;;;;;4914936;29;20126;-87
2023/03/23 12:18:48;;;;;;;4.60;1.00;;;16.20;99.90;;;;;;4924893;29;20034;-88
2023/03/23 12:22:01;;;;;;;0.93;0.63;;;15.80;99.90;;;;;;4932536;28;20127;-89
2023/03/23 12:24:43;;;;;;;2.30;0.70;;;15.60;99.90;;;;;;4871882;29;20481;-89
2023/03/23 12:27:19;;;;;;;4.53;1.00;;;15.60;99.90;;;;;;4864081;29;20073;-89
2023/03/23 12:30:01;;;;;;;2.33;0.90;;;15.80;99.90;;;;;;4867767;29;20080;-87
2023/03/23 12:33:02;;;;;;;1.88;1.33;;;16.30;99.90;;;;;;4879367;29;20045;-86
2023/03/23 12:35:42;;;;;;;2.78;0.95;;;16.50;99.90;;;;;;4875213;29;20537;-82
2023/03/23 12:38:16;;;;;;;4.35;0.90;;;16.60;99.90;;;;;;4874835;29;20069;-82
2023/03/23 12:41:16;;;;;;;2.40;0.88;;;16.80;99.90;;;;;;4873923;29;20040;-80
2023/03/23 12:43:59;;;;;;;2.75;1.00;;;17.20;99.90;;;;;;4881723;29;20041;-86
2023/03/23 12:46:27;;;;;;;;;;;17.50;99.90;;;;;;4881472;29;20068;-86
2023/03/23 12:48:59;;;;;;;4.65;1.00;;;17.80;99.90;;;;;;4864938;29;20018;-84
2023/03/23 12:54:19;;;;;;;3.72;1.10;;;18.70;99.90;;;;;;5028001;22;20057;-84
2023/03/23 12:57:01;;;;;;;160.88;66.95;;;18.70;99.90;;;;;;4975792;28;20108;-84
2023/03/23 12:59:44;;;;;;;2.17;1.70;;;18.70;99.90;;;;;;4981878;28;20513;-80
2023/03/23 13:02:10;;;;;;;4.30;1.25;;;18.60;99.90;;;;;;4977141;28;20576;-82
2023/03/23 13:04:44;;;;;;;3.30;1.30;;;18.60;99.90;;;;;;4975876;28;20474;-83
2023/03/23 13:07:18;;;;;;;4.90;1.35;;;18.70;99.90;;;;;;4986891;28;20072;-79
2023/03/23 13:10:23;;;;;;;1.95;1.15;;;19.10;99.90;;;;;;4980024;28;20181;-81
2023/03/23 13:12:51;;;;;;;2.00;1.38;;;18.60;99.90;;;;;;4984765;28;20538;-81